• Join FlightAware (Why Join?)
  • Login
  • US Flag 
04:23AM EDT


 

Airport Tracker/Info


-or-


 

Live Flight TrackerFlight Track Log ✈ N21315 ✈ 30-May-2013 ✈ KPCW - KHAO

Flight Track Log - Related Links

Times and Time Zones

All times are in EDT time to prevent confusion due to time zone crossing. See the N21315 flight status page for this flight to view local times or setup timezone preferences in your user account.

Time Position Orientation Groundspeed Altitude Reporting Facility
EDT Latitude Longitude Course Direction KTS MPH feet Rate Location/Type
07:23PM 41.4717 -82.7919 107° East 78 90 2,500  Level Cleveland Center
07:23PM 41.4678 -82.7750 107° East 81 93 2,600 300 Climbing Cleveland Center
07:24PM 41.4642 -82.7444 99° East 83 96 3,000 360 Climbing Cleveland Center
07:26PM 41.4349 -82.7706 214° Southwest  Level FlightAware Approximate
07:26PM 41.4353 -82.7381 214° Southwest 57 66 3,700  Level Cleveland Center
07:27PM 41.4186 -82.7319 165° South 55 63 4,000 240 Climbing Cleveland Center
07:28PM 41.4019 -82.7258 165° South 66 76 4,200 240 Climbing Cleveland Center
07:29PM 41.3833 -82.7197 166° South 64 74 4,600 300 Climbing Cleveland Center
07:30PM 41.3667 -82.7164 171° South 64 74 4,900 240 Climbing Cleveland Center
07:31PM 41.3500 -82.7242 199° South 67 77 5,200 240 Climbing Cleveland Center
07:33PM 41.3203 -82.7494 213° Southwest  Level FlightAware Approximate
07:39PM 41.2289 -82.8361 220° Southwest 126 145 7,500  Level Cleveland Center
07:40PM 41.1500 -82.9089 161° South  Level Estimated
07:40PM 41.2142 -82.8522 219° Southwest 94 108 7,700  Level Cleveland Center
07:41PM 41.1314 -82.8780 129° Southeast  Level FlightAware Approximate
07:41PM 41.1950 -82.8681 212° Southwest 77 89 8,100  Level Cleveland Center
07:42PM 41.1128 -82.8472 129° Southeast  Level FlightAware Approximate
07:42PM 41.1800 -82.8814 214° Southwest 72 83 8,600  Level Cleveland Center
07:43PM 41.0942 -82.8164 129° Southeast  Level FlightAware Approximate
07:43PM 41.1653 -82.8972 219° Southwest 72 83 8,900  Level Cleveland Center
07:44PM 41.0756 -82.7856 129° Southeast  Level FlightAware Approximate
07:44PM 41.1483 -82.9133 216° Southwest 72 83 9,100  Level Cleveland Center
07:45PM 41.0527 -82.8109 220° Southwest  Level FlightAware Approximate
07:45PM 41.1289 -82.9347 220° Southwest 84 97 9,200  Level Cleveland Center
07:46PM 41.1078 -82.9558 217° Southwest 94 108 9,300  Climbing Cleveland Center
07:47PM 41.0864 -82.9800 220° Southwest 100 115 9,200 -60 Descending Cleveland Center
07:48PM 41.0608 -83.0011 212° Southwest 105 121 9,200 -120 Level Cleveland Center
07:49PM 41.0375 -83.0194 211° Southwest 105 121 9,000 -60 Descending Cleveland Center
07:50PM 41.0142 -83.0406 214° Southwest 105 121 9,100  Climbing Cleveland Center
07:51PM 40.9950 -83.0564 212° Southwest 105 121 9,100 -60 Level Cleveland Center
07:52PM 40.9717 -83.0803 218° Southwest 105 121 9,000  Descending Cleveland Center
07:53PM 40.9503 -83.1014 217° Southwest 105 121 9,100 60 Climbing Cleveland Center
07:54PM 40.9289 -83.1225 217° Southwest 105 121 9,200  Climbing Cleveland Center
07:55PM 40.9056 -83.1436 214° Southwest 105 121 9,200  Level Cleveland Center
07:56PM 40.8842 -83.1703 223° Southwest 105 121 9,200  Level Cleveland Center
07:57PM 40.8647 -83.1772 195° South 104 120 9,200  Level Indianapolis Center
07:58PM 40.8406 -83.1969 212° Southwest 103 119 9,200 -60 Level Indianapolis Center
07:59PM 40.8181 -83.2169 214° Southwest 100 115 9,100  Descending Indianapolis Center
08:00PM 40.7958 -83.2378 215° Southwest 98 113 9,200  Climbing Indianapolis Center
08:01PM 40.7711 -83.2561 209° Southwest 101 116 9,200 -60 Level Indianapolis Center
08:02PM 40.7486 -83.2764 214° Southwest 99 114 9,100  Descending Indianapolis Center
08:03PM 40.7261 -83.2972 215° Southwest 98 113 9,200  Climbing Indianapolis Center
08:04PM 40.6994 -83.3211 214° Southwest 98 113 9,200  Level Indianapolis Center
08:05PM 40.6739 -83.3414 211° Southwest 103 119 9,200  Level Indianapolis Center
08:06PM 40.6511 -83.3633 216° Southwest 102 117 9,200  Level Indianapolis Center
08:07PM 40.6275 -83.3836 213° Southwest 101 116 9,200  Level Indianapolis Center
08:08PM 40.6039 -83.4078 218° Southwest 104 120 9,200 -60 Level Indianapolis Center
08:09PM 40.5800 -83.4278 212° Southwest 103 119 9,100 -120 Descending Indianapolis Center
08:10PM 40.5556 -83.4528 218° Southwest 107 123 9,000 -60 Descending Indianapolis Center
08:11PM 40.5331 -83.4758 218° Southwest 103 119 9,000  Level Indianapolis Center
08:12PM 40.5236 -83.4858 219° Southwest 106 122 9,000  Level Indianapolis Center
08:12PM 40.5092 -83.4978 212° Southwest 104 120 9,000  Level Indianapolis Center
08:13PM 40.4989 -83.5075 216° Southwest 104 120 9,000  Level Indianapolis Center
08:13PM 40.4856 -83.5208 217° Southwest 105 121 9,000  Level Indianapolis Center
08:14PM 40.4625 -83.5436 217° Southwest 103 119 9,000  Level Indianapolis Center
08:15PM 40.4367 -83.5697 218° Southwest 102 117 9,000  Level Indianapolis Center
08:16PM 40.4142 -83.5939 219° Southwest 103 119 9,000 -60 Level Indianapolis Center
08:18PM 40.3925 -83.6164 218° Southwest 100 115 8,900 -240 Descending Indianapolis Center
08:19PM 40.3711 -83.6431 224° Southwest 104 120 8,600 -360 Descending Indianapolis Center
08:20PM 40.3478 -83.6689 220° Southwest 108 124 8,200 -480 Descending Indianapolis Center
08:21PM 40.3228 -83.6919 215° Southwest 108 124 7,700 -540 Descending Indianapolis Center
08:22PM 40.2986 -83.7136 214° Southwest 106 122 7,200 -480 Descending Indianapolis Center
08:23PM 40.2739 -83.7347 213° Southwest 105 121 6,800 -360 Descending Indianapolis Center
08:24PM 40.2500 -83.7553 213° Southwest 104 120 6,500 -360 Descending Indianapolis Center
08:25PM 40.2247 -83.7758 212° Southwest 104 120 6,100 -300 Descending Indianapolis Center
08:26PM 40.1989 -83.7983 214° Southwest 95 109 6,000  Descending Indianapolis Center
08:27PM 40.1764 -83.8167 212° Southwest 97 112 6,100  Climbing Indianapolis Center
08:28PM 40.1539 -83.8364 214° Southwest 96 110 6,000  Descending Indianapolis Center
08:29PM 40.1314 -83.8561 214° Southwest 96 110 6,100  Climbing Indianapolis Center
08:30PM 40.1072 -83.8767 213° Southwest 95 109 6,100  Level Indianapolis Center
08:31PM 40.0850 -83.8928 209° Southwest 95 109 6,100  Level Indianapolis Center
08:32PM 40.0625 -83.9117 213° Southwest 92 106 6,100  Level Indianapolis Center
08:33PM 40.0406 -83.9281 210° Southwest 96 110 6,100  Level Indianapolis Center
08:34PM 40.0181 -83.9469 213° Southwest 96 110 6,100 -60 Level Indianapolis Center
08:35PM 39.9933 -83.9681 213° Southwest 95 109 6,000  Descending Indianapolis Center
08:36PM 39.9708 -83.9869 213° Southwest 95 109 6,100  Climbing Indianapolis Center
08:37PM 39.9486 -84.0058 213° Southwest 96 110 6,100  Level Indianapolis Center
08:38PM 39.9261 -84.0247 213° Southwest 95 109 6,100  Level Indianapolis Center
08:39PM 39.9039 -84.0408 209° Southwest 94 108 6,100  Level Indianapolis Center
08:40PM 39.8817 -84.0597 213° Southwest 96 110 6,100  Level Indianapolis Center
08:41PM 39.8592 -84.0786 213° Southwest 97 112 6,100  Level Indianapolis Center
08:42PM 39.8339 -84.0992 212° Southwest 96 110 6,100  Level Indianapolis Center
08:43PM 39.8108 -84.1175 211° Southwest 96 110 6,100  Level Indianapolis Center
08:44PM 39.7881 -84.1356 211° Southwest 95 109 6,100  Level Indianapolis Center
08:45PM 39.7658 -84.1561 215° Southwest 97 112 6,100  Level Indianapolis Center
08:46PM 39.7436 -84.1764 215° Southwest 97 112 6,100 -180 Level Indianapolis Center
08:47PM 39.7228 -84.1961 216° Southwest 95 109 5,800 -300 Descending Indianapolis Center
08:48PM 39.7008 -84.2158 215° Southwest 94 108 5,500 -360 Descending Indianapolis Center
08:49PM 39.6767 -84.2339 210° Southwest 96 110 5,100 -420 Descending Indianapolis Center
08:50PM 39.6536 -84.2542 214° Southwest 98 113 4,700 -480 Descending Indianapolis Center
08:51PM 39.6317 -84.2742 215° Southwest 98 113 4,200 -360 Descending Indianapolis Center
08:52PM 39.6089 -84.2944 214° Southwest 98 113 4,000 -60 Descending Indianapolis Center
08:53PM 39.5811 -84.3114 205° Southwest 95 109 4,100  Climbing Indianapolis Center
08:54PM 39.5569 -84.3225 200° South 92 106 4,100  Level Indianapolis Center
08:55PM 39.5317 -84.3344 200° South 93 107 4,100  Level Indianapolis Center
08:56PM 39.5064 -84.3453 198° South 94 108 4,100 -60 Level Indianapolis Center
08:57PM 39.4811 -84.3583 202° Southwest 96 110 4,000 -300 Descending Indianapolis Center
08:58PM 39.4556 -84.3722 203° Southwest 97 112 3,500 -420 Descending Indianapolis Center
08:59PM 39.4319 -84.3864 205° Southwest 98 113 3,200 -300 Descending Indianapolis Center
09:01PM 39.4164 -84.4174 218° Southwest  Level Estimated
09:08PM 39.3500 -84.5167 207° Southwest  Level FlightAware Approximate
09:09PM 39.3638 -84.5219 207° Southwest  Level Estimated
09:10PM 39.3638 -84.5219 207° Southwest  Level Estimated